»·PEaware :: N1987A KRIV-KPSP

N1987A :: KRIV-KPSP

FLIGHT INFORMATION

Flight Status: Arrived
Operator: Privately registered:
United States
More flights under this callsign
Pilot: Ollie G. (9040)
Aircraft: PIPER J-3 CUB
(J3)
More flights by this aircraft type
Origin: KRIV March ARB
United States
Destination: KPSP Palm Springs Intl
United States
More flights between these airports :: More routes between these airports
Route: +DIRECT
File this flight plan on PilotEdge
Remarks:
Altitude:
(Current/Filed)
5,000ft
Speed:
(Current/Filed)
130kts
Departed: 12-Dec-15 10:13 AM
Arrived: 12-Dec-15 10:54 AM
Distance/Time
Traveled:
38nm/0:41
Distance/Time
To Go:
Arrived

Flight Plot

Page will automatically refresh every two minutes.


Map Options




Map Legend


Flown Route
Filed Route
Departure Airport
Arrival Airport
Navaid (VOR, NDB)
Fix

Horizontal Profiles

Position Reports

Time Latitude Longitude Heading Altitude Ground
Speed
12-Dec-15 09:54 33.883014 -117.251549 55 1538ft 0kts
12-Dec-15 09:55 33.883014 -117.251548 55 1538ft 0kts
12-Dec-15 09:56 33.883015 -117.251547 45 1538ft 0kts
12-Dec-15 09:57 33.896607 -117.258113 225 1538ft 0kts
12-Dec-15 09:58 33.899492 -117.261487 235 1538ft 0kts
12-Dec-15 09:59 33.899491 -117.261489 235 1538ft 0kts
12-Dec-15 10:00 33.899490 -117.261490 235 1538ft 0kts
12-Dec-15 10:01 33.899489 -117.261492 235 1538ft 0kts
12-Dec-15 10:02 33.899488 -117.261493 235 1538ft 0kts
12-Dec-15 10:03 33.899487 -117.261494 235 1538ft 0kts
12-Dec-15 10:04 33.899487 -117.261496 235 1538ft 0kts
12-Dec-15 10:05 33.899486 -117.261497 235 1538ft 0kts
12-Dec-15 10:06 33.899485 -117.261498 235 1538ft 0kts
12-Dec-15 10:07 33.899444 -117.261569 234 1538ft 6kts
12-Dec-15 10:08 33.895265 -117.262708 145 1538ft 27kts
12-Dec-15 10:09 33.891554 -117.260325 36 1538ft 7kts
12-Dec-15 10:10 33.884187 -117.250244 135 1538ft 56kts
12-Dec-15 10:11 33.877930 -117.249994 202 1538ft 37kts
12-Dec-15 10:12 33.867372 -117.246416 151 1538ft 48kts
12-Dec-15 10:13 33.865598 -117.247147 263 1538ft 0kts
12-Dec-15 10:14 33.865597 -117.247150 263 1538ft 0kts
12-Dec-15 10:15 33.865597 -117.247154 263 1538ft 0kts
12-Dec-15 10:16 33.865597 -117.247158 263 1538ft 0kts
12-Dec-15 10:17 33.865596 -117.247166 263 1538ft 0kts
12-Dec-15 10:18 33.865596 -117.247168 263 1538ft 0kts
12-Dec-15 10:19 33.865596 -117.247169 263 1538ft 0kts
12-Dec-15 10:20 33.865596 -117.247170 263 1538ft 0kts
12-Dec-15 10:21 33.865985 -117.249005 326 1538ft 12kts
12-Dec-15 10:22 33.875822 -117.255462 333 1850ft 85kts
12-Dec-15 10:23 33.898596 -117.273259 316 3050ft 103kts
12-Dec-15 10:24 33.918489 -117.298189 319 4340ft 103kts
12-Dec-15 10:25 33.942450 -117.318995 329 5222ft 108kts
12-Dec-15 10:26 33.970550 -117.333902 345 5565ft 110kts
12-Dec-15 10:27 33.982223 -117.301188 98 5826ft 138kts
12-Dec-15 10:28 33.967383 -117.254304 114 5964ft 153kts
12-Dec-15 10:29 33.955085 -117.214162 103 6088ft 154kts
12-Dec-15 10:30 33.940875 -117.164976 113 6208ft 156kts
12-Dec-15 10:31 33.926914 -117.114947 114 6298ft 158kts
12-Dec-15 10:32 33.918961 -117.061280 99 6198ft 164kts
12-Dec-15 10:33 33.912545 -117.006931 95 6142ft 163kts
12-Dec-15 10:34 33.905776 -116.952702 98 6093ft 163kts
12-Dec-15 10:35 33.899624 -116.898689 96 6019ft 163kts
12-Dec-15 10:36 33.892395 -116.844758 94 5987ft 162kts
12-Dec-15 10:37 33.890067 -116.791546 99 5832ft 156kts
12-Dec-15 10:38 33.884200 -116.740703 96 5749ft 151kts
12-Dec-15 10:39 33.875141 -116.690899 101 5620ft 151kts
12-Dec-15 10:40 33.864280 -116.643819 106 5369ft 141kts
12-Dec-15 10:41 33.864034 -116.604096 66 4971ft 109kts
12-Dec-15 10:42 33.885773 -116.604211 333 4390ft 106kts
12-Dec-15 10:43 33.911351 -116.604553 55 4191ft 102kts
12-Dec-15 10:44 33.900196 -116.574743 121 3669ft 110kts
12-Dec-15 10:45 33.884487 -116.542466 124 3249ft 111kts
12-Dec-15 10:46 33.859336 -116.519986 172 2948ft 112kts
12-Dec-15 10:47 33.829744 -116.517140 92 2668ft 104kts
12-Dec-15 10:48 33.830626 -116.480157 125 1843ft 104kts
12-Dec-15 10:49 33.807619 -116.468886 228 1441ft 96kts
12-Dec-15 10:50 33.814092 -116.490960 323 773ft 81kts
12-Dec-15 10:51 33.828970 -116.504096 37 480ft 5kts
12-Dec-15 10:52 33.829196 -116.503869 43 480ft 0kts
12-Dec-15 10:53 33.829197 -116.503868 43 480ft 0kts
12-Dec-15 10:54 33.827039 -116.499691 56 480ft 1kts

Navigation Log

Ident Type
Flight plan parsing failed, navigation log unavailable